Terminal Aerodrome Forecast
Issued by NWS

Home | Current Version | Previous Version | Text Only | Print | Product List | Glossary On
Versions: 1 2 3 4 5 6 7 8 9 10 11 12 13 14 15 16
000
FTUS43 KMQT 301700
TAFCMX
TAF
KCMX 301731Z 3018/3118 28012KT 6SM -RA OVC014
     FM302300 33015G23KT 6SM -SHRASN OVC015
     FM310200 01017G27KT 1 1/2SM -SHSN OVC008
     FM310400 01020G30KT 3SM -SHSN OVC015
     FM311100 01016G27KT 4SM -SHSN OVC020=

USA.gov is the U.S. government's official web portal to all federal, state and local government web resources and services.